Time;durP1;ratioP1;P1;durP2;ratioP2;P2;SDS_P1;SDS_P2;PMS_P1;PMS_P2;Temp;Humidity;BMP_temperature;BMP_pressure;BME280_temperature;BME280_humidity;BME280_pressure;Samples;Min_cycle;Max_cycle;Signal;HPM_P1;HPM_P2
2021/09/13 00:01:41;;;;;;;5.00;3.80;;;;;;;23.65;41.23;101471.97;4969338;28;20167;-74
2021/09/13 00:04:08;;;;;;;5.50;3.58;;;;;;;23.64;41.05;101461.91;4968561;28;20042;-75
2021/09/13 00:06:34;;;;;;;5.40;3.92;;;;;;;23.63;40.86;101460.19;4968037;28;20565;-75
2021/09/13 00:09:01;;;;;;;5.80;3.72;;;;;;;23.62;40.71;101453.78;4966772;28;20078;-72
2021/09/13 00:11:28;;;;;;;5.55;3.53;;;;;;;23.62;41.51;101458.47;4969289;28;20357;-74
2021/09/13 00:13:54;;;;;;;5.25;3.80;;;;;;;23.60;41.02;101453.09;4967838;28;20046;-74
2021/09/13 00:16:21;;;;;;;6.38;4.47;;;;;;;23.57;41.33;101450.66;4968969;28;20050;-76
2021/09/13 00:18:48;;;;;;;6.32;4.10;;;;;;;23.54;41.95;101451.00;4967969;28;20078;-72
2021/09/13 00:21:14;;;;;;;5.15;3.55;;;;;;;23.51;41.23;101451.34;4967783;28;20469;-74
2021/09/13 00:23:41;;;;;;;5.18;3.45;;;;;;;23.48;41.26;101449.78;4967202;28;20055;-75
2021/09/13 00:26:07;;;;;;;5.47;3.88;;;;;;;23.47;41.42;101450.78;4967383;28;20051;-75
2021/09/13 00:28:34;;;;;;;5.35;3.55;;;;;;;23.46;41.39;101450.97;4967769;28;20133;-74
2021/09/13 00:31:00;;;;;;;5.13;3.85;;;;;;;23.46;41.77;101454.63;4968965;28;20065;-74
2021/09/13 00:33:27;;;;;;;5.45;4.20;;;;;;;23.45;41.81;101450.09;4967934;28;20098;-75
2021/09/13 00:35:53;;;;;;;6.43;4.28;;;;;;;23.43;41.62;101449.41;4968874;28;20086;-75
2021/09/13 00:38:20;;;;;;;5.85;4.38;;;;;;;23.42;41.52;101455.13;4967746;28;20138;-72
2021/09/13 00:40:46;;;;;;;5.88;4.15;;;;;;;23.40;41.54;101449.72;4968761;28;20325;-75
2021/09/13 00:43:13;;;;;;;5.45;4.15;;;;;;;23.38;41.83;101457.38;4967631;28;20481;-74
2021/09/13 00:45:40;;;;;;;7.05;4.50;;;;;;;23.37;41.31;101452.88;4967480;28;20408;-76
2021/09/13 00:48:07;;;;;;;7.93;5.00;;;;;;;23.35;41.78;101445.75;4967065;28;20086;-74
2021/09/13 00:50:33;;;;;;;6.53;4.50;;;;;;;23.32;41.55;101452.50;4967307;28;20093;-75
2021/09/13 00:53:00;;;;;;;6.38;4.18;;;;;;;23.32;42.09;101446.09;4967478;28;20394;-74
2021/09/13 00:55:31;;;;;;;5.93;4.22;;;;;;;23.30;41.91;101442.63;4966908;28;20476;-76
2021/09/13 00:57:58;;;;;;;6.75;4.28;;;;;;;23.31;41.41;101450.75;4967303;28;20459;-75
2021/09/13 01:00:25;;;;;;;6.03;4.03;;;;;;;23.30;41.76;101450.97;4968543;28;20412;-74
2021/09/13 01:02:51;;;;;;;5.95;4.22;;;;;;;23.30;41.53;101457.38;4967284;28;20409;-74
2021/09/13 01:05:18;;;;;;;6.85;4.32;;;;;;;23.30;42.13;101459.28;4968378;28;20513;-75
2021/09/13 01:07:45;;;;;;;6.47;4.40;;;;;;;23.29;41.81;101455.63;4967344;28;20135;-74
2021/09/13 01:10:13;;;;;;;5.53;3.80;;;;;;;23.29;41.72;101460.31;4966850;28;20182;-73
2021/09/13 01:12:40;;;;;;;5.40;3.67;;;;;;;23.30;41.41;101456.50;4967011;28;20122;-75
2021/09/13 01:15:07;;;;;;;7.80;4.20;;;;;;;23.29;41.64;101465.84;4950472;28;20134;-74
2021/09/13 01:17:33;;;;;;;6.47;4.45;;;;;;;23.30;41.81;101459.28;4967249;28;20384;-74
2021/09/13 01:20:00;;;;;;;6.97;4.20;;;;;;;23.28;41.90;101453.88;4967957;28;20133;-72
2021/09/13 01:22:27;;;;;;;6.93;4.10;;;;;;;23.29;41.96;101449.22;4967259;28;20501;-75
2021/09/13 01:24:54;;;;;;;5.72;3.80;;;;;;;23.29;42.15;101443.69;4967753;28;20141;-74
2021/09/13 01:27:20;;;;;;;6.80;4.18;;;;;;;23.28;41.64;101444.72;4967028;28;20054;-75
2021/09/13 01:29:47;;;;;;;5.75;4.18;;;;;;;23.26;41.96;101435.69;4966806;28;20134;-72
2021/09/13 01:32:13;;;;;;;6.05;4.22;;;;;;;23.25;41.75;101442.25;4967633;28;20154;-75
2021/09/13 01:34:40;;;;;;;5.93;4.00;;;;;;;23.25;41.74;101436.72;4966463;28;20241;-72
2021/09/13 01:37:06;;;;;;;6.30;4.13;;;;;;;23.24;41.84;101440.53;4966730;28;20439;-74
2021/09/13 01:39:33;;;;;;;6.38;4.30;;;;;;;23.24;41.95;101449.72;4966498;28;20524;-73
2021/09/13 01:41:59;;;;;;;6.05;3.85;;;;;;;23.23;41.74;101449.88;4950682;28;20579;-76
2021/09/13 01:44:26;;;;;;;6.47;4.13;;;;;;;23.24;41.93;101449.72;4966478;28;20050;-74
2021/09/13 01:46:53;;;;;;;5.53;4.05;;;;;;;23.23;41.82;101445.19;4967149;28;20267;-74
2021/09/13 01:49:19;;;;;;;6.38;3.90;;;;;;;23.23;41.84;101449.88;4966645;28;20082;-73
2021/09/13 01:51:46;;;;;;;5.45;4.10;;;;;;;23.23;41.56;101447.09;4966129;28;20058;-76
2021/09/13 01:54:13;;;;;;;5.20;3.78;;;;;;;23.21;42.12;101444.53;4966659;28;20113;-75
2021/09/13 01:56:40;;;;;;;5.63;4.32;;;;;;;23.21;41.66;101436.22;4967446;28;20138;-74
2021/09/13 01:59:06;;;;;;;5.68;4.15;;;;;;;23.20;41.80;101434.47;4966556;28;20153;-74
2021/09/13 02:01:33;;;;;;;5.28;3.90;;;;;;;23.20;41.33;101434.47;4966099;28;20300;-73
2021/09/13 02:04:03;;;;;;;6.53;4.50;;;;;;;23.19;41.52;101435.50;4966179;28;20055;-73
2021/09/13 02:06:31;;;;;;;6.55;4.20;;;;;;;23.19;41.67;101435.50;4967187;28;20043;-72
2021/09/13 02:08:58;;;;;;;5.38;3.85;;;;;;;23.16;41.95;101430.31;4970300;28;20057;-72
2021/09/13 02:11:24;;;;;;;5.97;4.30;;;;;;;23.14;41.45;101436.00;4971571;28;20450;-75
2021/09/13 02:13:51;;;;;;;5.93;4.32;;;;;;;23.12;41.67;101429.78;4970619;28;20051;-75
2021/09/13 02:16:17;;;;;;;6.80;4.55;;;;;;;23.10;42.12;101433.75;4971500;28;20483;-75
2021/09/13 02:18:44;;;;;;;5.53;4.07;;;;;;;23.08;41.66;101436.69;4970374;28;20055;-75
2021/09/13 02:21:10;;;;;;;5.97;4.20;;;;;;;23.06;42.04;101438.75;4971572;28;20453;-74
2021/09/13 02:23:37;;;;;;;5.95;4.28;;;;;;;23.05;41.78;101439.81;4969987;28;20134;-74
2021/09/13 02:26:03;;;;;;;6.57;4.57;;;;;;;23.03;41.81;101436.34;4969668;28;20137;-73
2021/09/13 02:28:30;;;;;;;5.90;4.03;;;;;;;23.02;41.88;101430.97;4968887;28;20556;-75
2021/09/13 02:30:56;;;;;;;5.85;4.10;;;;;;;23.01;41.40;101432.00;4971205;28;20073;-74
2021/09/13 02:33:23;;;;;;;6.00;4.55;;;;;;;23.00;41.71;101435.81;4969966;28;20606;-74
2021/09/13 02:35:49;;;;;;;6.55;4.07;;;;;;;22.98;41.79;101441.50;4970870;28;20134;-75
2021/09/13 02:38:16;;;;;;;5.43;4.05;;;;;;;22.96;41.95;101440.84;4969928;28;20133;-74
2021/09/13 02:40:42;;;;;;;6.25;4.28;;;;;;;22.96;41.34;101434.44;4969563;28;20567;-73
2021/09/13 02:43:09;;;;;;;7.15;4.68;;;;;;;22.94;41.82;101436.50;4968605;28;20057;-74
2021/09/13 02:45:36;;;;;;;7.30;4.47;;;;;;;22.92;41.92;101438.56;4971037;28;20049;-75
2021/09/13 02:48:03;;;;;;;6.55;4.68;;;;;;;22.90;42.04;101440.63;4969929;28;20057;-75
2021/09/13 02:50:29;;;;;;;7.30;4.45;;;;;;;22.87;41.52;101441.84;4970611;28;20054;-75
2021/09/13 02:52:58;;;;;;;6.30;4.15;;;;;;;22.86;41.84;101436.47;4968358;28;20085;-75
2021/09/13 02:55:25;;;;;;;6.57;4.60;;;;;;;22.84;41.75;101436.63;4970632;28;20137;-75
2021/09/13 02:57:52;;;;;;;6.93;4.40;;;;;;;22.83;41.48;101442.31;4969769;28;20133;-72
2021/09/13 03:00:20;;;;;;;7.63;4.95;;;;;;;22.81;42.18;101441.66;4970672;28;20142;-74
2021/09/13 03:02:47;;;;;;;6.05;4.22;;;;;;;22.78;41.84;101445.63;4968148;28;20089;-71
2021/09/13 03:05:13;;;;;;;6.15;4.47;;;;;;;22.78;42.05;101437.31;4970688;28;20527;-75
2021/09/13 03:07:40;;;;;;;7.18;4.57;;;;;;;22.75;41.84;101438.50;4968223;28;20129;-74
2021/09/13 03:10:07;;;;;;;6.40;5.05;;;;;;;22.74;41.46;101449.72;4970317;28;20051;-75
2021/09/13 03:12:34;;;;;;;6.68;4.45;;;;;;;22.72;41.73;101447.13;4969447;28;20263;-73
2021/09/13 03:15:06;;;;;;;6.93;4.88;;;;;;;22.72;41.77;101438.81;4970121;28;20512;-73
2021/09/13 03:17:33;;;;;;;6.87;4.87;;;;;;;22.68;41.64;101436.53;4969272;28;20427;-75
2021/09/13 03:20:00;;;;;;;7.63;5.00;;;;;;;22.67;41.67;101438.44;4970157;28;20717;-75
2021/09/13 03:22:26;;;;;;;7.63;4.97;;;;;;;22.66;41.79;101438.59;4969079;28;20062;-74
2021/09/13 03:24:53;;;;;;;8.18;5.15;;;;;;;22.64;42.25;101437.91;4968825;28;20050;-75
2021/09/13 03:27:19;;;;;;;7.13;4.85;;;;;;;22.60;41.65;101429.06;4967934;28;20416;-75
2021/09/13 03:29:46;;;;;;;7.00;4.93;;;;;;;22.58;41.78;101433.03;4952397;28;20141;-75
2021/09/13 03:32:12;;;;;;;8.77;5.53;;;;;;;22.54;42.03;101426.09;4970050;28;20141;-75
2021/09/13 03:34:39;;;;;;;7.10;5.13;;;;;;;22.51;42.56;101421.75;4967846;28;20046;-74
2021/09/13 03:37:05;;;;;;;9.50;5.25;;;;;;;22.49;41.90;101425.72;4968730;28;20141;-75
2021/09/13 03:39:32;;;;;;;7.68;5.43;;;;;;;22.47;42.61;101425.03;4967408;28;20070;-74
2021/09/13 03:41:58;;;;;;;7.22;5.30;;;;;;;22.43;42.35;101412.56;4969605;28;20481;-72
2021/09/13 03:44:25;;;;;;;6.97;5.18;;;;;;;22.39;42.45;101415.66;4967327;28;20053;-74
2021/09/13 03:46:53;;;;;;;7.28;4.85;;;;;;;22.37;42.59;101416.84;4970101;28;20516;-75
2021/09/13 03:49:19;;;;;;;7.50;5.32;;;;;;;22.34;42.22;101419.94;4968647;28;20146;-74
2021/09/13 03:51:46;;;;;;;6.47;4.80;;;;;;;22.31;42.58;101417.53;4968555;28;20141;-76
2021/09/13 03:54:13;;;;;;;7.47;4.82;;;;;;;22.29;42.32;101416.81;4968456;28;20568;-75
2021/09/13 03:56:39;;;;;;;7.75;4.90;;;;;;;22.27;42.34;101422.50;4968157;28;20053;-73
2021/09/13 03:59:05;;;;;;;6.78;4.93;;;;;;;22.25;42.64;101419.03;4968514;28;20583;-74
2021/09/13 04:01:36;;;;;;;6.43;4.72;;;;;;;22.24;42.50;101420.06;4969692;28;20055;-74
2021/09/13 04:04:04;;;;;;;7.00;5.30;;;;;;;22.23;42.46;101415.59;4968164;28;20050;-75
2021/09/13 04:12:03;;;;;;;7.05;5.18;;;;;;;22.14;42.50;101416.56;4969323;28;20161;-73
2021/09/13 04:14:23;;;;;;;7.90;5.53;;;;;;;22.09;42.96;101424.47;4966865;28;20046;-75
2021/09/13 04:16:50;;;;;;;7.25;4.55;;;;;;;22.08;42.73;101419.97;4969315;28;20134;-72
2021/09/13 04:19:17;;;;;;;6.47;4.53;;;;;;;22.06;42.36;101426.72;4967819;28;20532;-73
2021/09/13 04:21:44;;;;;;;8.18;4.65;;;;;;;22.04;42.73;101428.75;4968876;28;20133;-73
2021/09/13 04:24:11;;;;;;;7.07;4.95;;;;;;;22.01;42.63;101429.94;4967794;28;20784;-74
2021/09/13 04:26:38;;;;;;;6.10;4.22;;;;;;;22.00;42.44;101428.22;4969016;28;20054;-73
2021/09/13 04:29:04;;;;;;;6.93;4.95;;;;;;;21.99;42.57;101432.00;4967894;28;20138;-72
2021/09/13 04:31:31;;;;;;;6.03;4.22;;;;;;;22.00;42.90;101436.50;4968502;28;20191;-73
2021/09/13 04:33:58;;;;;;;7.38;4.68;;;;;;;21.99;42.66;101432.88;4967736;28;20141;-74
2021/09/13 04:36:25;;;;;;;7.22;4.68;;;;;;;21.98;42.84;101425.63;4968934;28;20043;-74
2021/09/13 04:38:51;;;;;;;6.55;4.80;;;;;;;21.98;42.78;101425.63;4966516;28;20133;-75
2021/09/13 04:41:18;;;;;;;7.13;5.07;;;;;;;21.98;42.48;101435.81;4967112;28;20153;-73
2021/09/13 04:43:45;;;;;;;6.30;4.75;;;;;;;21.97;42.73;101436.84;4967531;28;20497;-73
2021/09/13 04:46:11;;;;;;;6.18;4.57;;;;;;;21.95;42.72;101436.97;4968415;28;20572;-74
2021/09/13 04:48:38;;;;;;;7.97;4.53;;;;;;;21.95;42.58;101434.22;4967768;28;20061;-75
2021/09/13 04:51:06;;;;;;;8.30;4.65;;;;;;;21.93;42.53;101439.03;4968376;28;20613;-74
2021/09/13 04:53:32;;;;;;;6.72;4.90;;;;;;;21.93;43.00;101451.97;4967444;28;20051;-75
2021/09/13 04:55:59;;;;;;;6.40;4.47;;;;;;;21.92;42.81;101444.72;4968339;28;20379;-75
2021/09/13 04:58:25;;;;;;;6.82;4.93;;;;;;;21.91;42.74;101454.91;4967519;28;20046;-74
2021/09/13 05:00:52;;;;;;;7.35;4.57;;;;;;;21.91;42.80;101445.72;4967931;28;20133;-75
2021/09/13 05:03:19;;;;;;;6.35;4.97;;;;;;;21.90;42.83;101442.13;4967320;28;20043;-75
2021/09/13 05:05:46;;;;;;;6.30;4.63;;;;;;;21.89;42.45;101447.81;4968104;28;20193;-75
2021/09/13 05:08:12;;;;;;;6.03;4.55;;;;;;;21.88;42.66;101446.94;4967172;28;20061;-75
2021/09/13 05:10:39;;;;;;;7.28;4.85;;;;;;;21.88;42.81;101444.19;4968011;28;20047;-75
2021/09/13 05:13:06;;;;;;;6.15;4.65;;;;;;;21.86;42.64;101457.28;4950045;28;20061;-74
2021/09/13 05:15:32;;;;;;;7.22;4.63;;;;;;;21.85;42.47;101444.50;4966762;28;20047;-75
2021/09/13 05:17:59;;;;;;;6.70;4.68;;;;;;;21.84;42.42;101451.03;4950084;28;20138;-74
2021/09/13 05:20:25;;;;;;;6.20;4.72;;;;;;;21.83;42.78;101449.31;4967900;28;20085;-75
2021/09/13 05:22:52;;;;;;;7.57;4.93;;;;;;;21.83;42.61;101451.19;4966913;28;20073;-75
2021/09/13 05:25:19;;;;;;;6.38;4.97;;;;;;;21.81;42.58;101456.91;4967780;28;20158;-74
2021/09/13 05:27:46;;;;;;;8.00;5.10;;;;;;;21.79;42.87;101449.81;4966793;28;20066;-74
2021/09/13 05:30:15;;;;;;;7.90;4.80;;;;;;;21.75;42.72;101446.47;4950665;28;20105;-75
2021/09/13 05:32:42;;;;;;;7.32;4.68;;;;;;;21.73;42.80;101450.47;4965831;28;20052;-75
2021/09/13 05:35:09;;;;;;;6.55;4.40;;;;;;;21.72;42.60;101457.00;4967807;28;20501;-75
2021/09/13 05:37:36;;;;;;;8.85;4.72;;;;;;;21.70;42.99;101454.41;4966673;28;20175;-72
2021/09/13 05:40:06;;;;;;;6.68;4.80;;;;;;;21.70;42.86;101468.22;4967554;28;20441;-73
2021/09/13 05:42:33;;;;;;;7.80;5.45;;;;;;;21.69;43.08;101471.13;4966425;28;20424;-74
2021/09/13 05:45:00;;;;;;;7.32;5.25;;;;;;;21.67;43.06;101473.19;4950407;28;20126;-71
2021/09/13 05:47:27;;;;;;;7.93;4.65;;;;;;;21.65;43.13;101465.06;4966396;28;20055;-73
2021/09/13 05:49:53;;;;;;;7.05;4.80;;;;;;;21.63;43.16;101467.13;4967293;28;20069;-74
2021/09/13 05:52:20;;;;;;;7.47;5.07;;;;;;;21.62;43.20;101466.25;4949704;28;20142;-75
2021/09/13 05:54:47;;;;;;;6.95;4.55;;;;;;;21.60;42.76;101471.06;4967461;28;20523;-73
2021/09/13 05:57:13;;;;;;;6.97;4.97;;;;;;;21.59;43.06;101468.44;4950383;28;20129;-73
2021/09/13 05:59:40;;;;;;;6.35;4.65;;;;;;;21.58;42.87;101475.00;4966220;28;20137;-75
2021/09/13 06:02:06;;;;;;;8.45;4.88;;;;;;;21.58;43.43;101478.63;4949978;28;20069;-75
2021/09/13 06:04:33;;;;;;;8.32;5.63;;;;;;;21.56;43.35;101475.19;4966216;28;20058;-74
2021/09/13 06:07:00;;;;;;;7.43;5.25;;;;;;;21.54;43.30;101482.75;4967232;28;20480;-73
2021/09/13 06:09:26;;;;;;;6.90;5.13;;;;;;;21.52;43.59;101478.41;4966188;28;20129;-75
2021/09/13 06:11:53;;;;;;;6.45;4.70;;;;;;;21.51;43.40;101485.81;4967536;28;20055;-75
2021/09/13 06:14:23;;;;;;;7.47;5.00;;;;;;;21.48;43.48;101488.06;4966602;28;20561;-76
2021/09/13 06:16:50;;;;;;;8.50;5.20;;;;;;;21.45;43.43;101483.69;4966954;28;20408;-72
2021/09/13 06:19:17;;;;;;;8.57;4.68;;;;;;;21.43;43.99;101490.41;4966296;28;20070;-75
2021/09/13 06:21:43;;;;;;;7.25;5.05;;;;;;;21.41;43.67;101489.72;4967126;28;20054;-75
2021/09/13 06:24:10;;;;;;;8.95;5.40;;;;;;;21.38;43.80;101493.66;4949065;28;20070;-72
2021/09/13 06:26:37;;;;;;;6.68;5.25;;;;;;;21.37;44.04;101493.81;4967215;28;20074;-73
2021/09/13 06:29:05;;;;;;;6.72;5.07;;;;;;;21.37;44.22;101491.91;4949100;28;20137;-72
2021/09/13 06:31:32;;;;;;;7.57;5.07;;;;;;;21.35;44.11;101498.59;4967245;28;20046;-73
2021/09/13 06:33:58;;;;;;;8.68;5.47;;;;;;;21.35;44.49;101493.09;4966150;28;20050;-75
2021/09/13 06:36:26;;;;;;;6.60;4.45;;;;;;;21.34;44.37;101496.88;4965681;28;20130;-75
2021/09/13 06:38:53;;;;;;;6.50;4.88;;;;;;;21.35;44.30;101502.25;4966303;28;20077;-73
2021/09/13 06:41:19;;;;;;;6.93;5.07;;;;;;;21.36;44.48;101505.88;4965865;28;20054;-74
2021/09/13 06:43:47;;;;;;;8.38;5.15;;;;;;;21.37;44.86;101505.72;4964791;28;20401;-74
2021/09/13 06:46:22;;;;;;;7.18;5.18;;;;;;;21.38;44.46;101503.84;4978925;23;20035;-73
2021/09/13 06:48:49;;;;;;;5.90;4.60;;;;;;;21.38;44.64;101501.94;5003962;28;20045;-73
2021/09/13 06:51:17;;;;;;;7.75;5.40;;;;;;;21.40;44.87;101505.41;5004871;28;20081;-73
2021/09/13 06:53:44;;;;;;;7.15;5.65;;;;;;;21.42;45.03;101500.59;5004895;28;20056;-73
2021/09/13 06:56:12;;;;;;;7.78;5.57;;;;;;;21.47;45.60;101501.00;5001943;28;20050;-73
2021/09/13 06:58:39;;;;;;;9.32;5.97;;;;;;;21.49;45.46;101498.09;4997566;28;20440;-73
2021/09/13 07:01:06;;;;;;;7.13;5.13;;;;;;;21.54;45.87;101498.47;5003736;28;20082;-73
2021/09/13 07:03:34;;;;;;;8.52;6.28;;;;;;;21.61;45.92;101499.56;4988244;28;20050;-72
2021/09/13 07:06:01;;;;;;;8.38;6.07;;;;;;;21.71;46.36;101507.78;4988903;28;20069;-72
2021/09/13 07:08:28;;;;;;;8.05;5.90;;;;;;;21.80;46.58;101506.84;4986843;28;20108;-73
2021/09/13 07:10:54;;;;;;;9.00;6.22;;;;;;;21.91;46.61;101510.19;4987081;28;20050;-73
2021/09/13 07:13:21;;;;;;;9.05;6.15;;;;;;;22.02;45.93;101511.88;4987163;28;20133;-73
2021/09/13 07:15:48;;;;;;;10.98;6.32;;;;;;;22.15;46.31;101515.13;4989050;28;20073;-74
2021/09/13 07:18:14;;;;;;;8.65;6.00;;;;;;;22.25;46.05;101512.22;4988200;28;20073;-73
2021/09/13 07:20:41;;;;;;;8.65;6.80;;;;;;;22.34;45.62;101512.13;4988778;28;20459;-73
2021/09/13 07:23:08;;;;;;;10.07;6.80;;;;;;;22.43;45.78;101515.81;4988085;28;20125;-72
2021/09/13 07:25:35;;;;;;;13.77;6.93;;;;;;;22.51;45.58;101514.97;4988900;28;20073;-72
2021/09/13 07:28:01;;;;;;;9.32;6.55;;;;;;;22.58;45.50;101521.59;4991201;28;20480;-72
2021/09/13 07:30:28;;;;;;;7.88;6.22;;;;;;;22.65;45.80;101519.91;5008453;28;20539;-72
2021/09/13 07:32:55;;;;;;;8.88;6.93;;;;;;;22.71;45.83;101510.97;4990754;28;20050;-72
2021/09/13 07:35:21;;;;;;;10.20;6.82;;;;;;;22.80;45.75;101511.91;4989065;28;20141;-72
2021/09/13 07:37:48;;;;;;;9.48;6.85;;;;;;;22.85;45.40;101507.59;4987758;28;20153;-72
2021/09/13 07:40:16;;;;;;;9.02;6.60;;;;;;;22.92;44.92;101505.88;4971333;28;20054;-72
2021/09/13 07:42:43;;;;;;;10.52;7.57;;;;;;;22.98;45.07;101516.28;4986553;28;20050;-73
2021/09/13 07:45:10;;;;;;;9.93;7.13;;;;;;;23.05;44.57;101514.59;4988631;28;20055;-72
2021/09/13 07:47:37;;;;;;;10.02;7.15;;;;;;;23.06;44.39;101521.84;4987193;28;20137;-72
2021/09/13 07:50:06;;;;;;;10.70;8.02;;;;;;;23.07;44.40;101511.66;4988330;28;20082;-72
2021/09/13 07:52:32;;;;;;;10.98;7.40;;;;;;;23.09;44.24;101509.59;4986096;28;20133;-72
2021/09/13 07:54:59;;;;;;;9.63;7.38;;;;;;;23.08;44.40;101511.47;4988438;28;20306;-72
2021/09/13 07:57:25;;;;;;;10.63;7.78;;;;;;;23.08;44.04;101522.56;4986667;28;20069;-72
2021/09/13 07:59:52;;;;;;;11.82;8.32;;;;;;;23.12;44.33;101514.78;5007500;28;20330;-72
2021/09/13 08:02:19;;;;;;;14.43;8.18;;;;;;;23.12;43.87;101518.44;5000051;28;20470;-73
2021/09/13 08:04:46;;;;;;;13.25;9.57;;;;;;;23.13;44.25;101520.19;4987081;28;20423;-72
2021/09/13 08:07:12;;;;;;;12.52;9.18;;;;;;;23.13;44.14;101524.84;4988054;28;20095;-72
2021/09/13 08:09:39;;;;;;;13.13;8.68;;;;;;;23.12;44.08;101518.44;4986903;28;20084;-74
2021/09/13 08:12:07;;;;;;;12.82;9.23;;;;;;;23.13;43.68;101522.94;4988264;28;20074;-74
2021/09/13 08:14:34;;;;;;;13.20;8.60;;;;;;;23.14;43.80;101523.81;4987396;28;20097;-74
2021/09/13 08:17:01;;;;;;;14.20;9.40;;;;;;;23.15;44.16;101528.28;4987394;28;20484;-74
2021/09/13 08:19:27;;;;;;;12.95;8.65;;;;;;;23.17;44.28;101530.91;4969443;28;20050;-74
2021/09/13 08:21:54;;;;;;;12.85;8.73;;;;;;;23.17;43.82;101530.91;4988333;28;20459;-74
2021/09/13 08:24:21;;;;;;;13.00;8.60;;;;;;;23.18;43.71;101532.63;4987229;28;20054;-75
2021/09/13 08:26:47;;;;;;;13.82;9.90;;;;;;;23.19;43.76;101535.25;4987530;28;20431;-74
2021/09/13 08:29:15;;;;;;;11.57;8.48;;;;;;;23.21;43.94;101540.63;5000397;28;20050;-75
2021/09/13 08:31:42;;;;;;;12.07;8.27;;;;;;;23.23;44.20;101542.19;5007407;28;20408;-74
2021/09/13 08:34:09;;;;;;;12.90;9.65;;;;;;;23.27;44.25;101545.50;4988337;28;20077;-74
2021/09/13 08:36:35;;;;;;;15.05;9.82;;;;;;;23.27;43.91;101546.34;4987030;28;20141;-74
2021/09/13 08:39:03;;;;;;;15.15;9.48;;;;;;;23.29;44.21;101551.75;4986610;28;20050;-74
2021/09/13 08:41:32;;;;;;;13.68;9.68;;;;;;;23.31;44.39;101555.19;4987381;28;20096;-74
2021/09/13 08:44:00;;;;;;;11.23;8.65;;;;;;;23.34;44.28;101558.50;4986908;28;20073;-75
2021/09/13 08:51:54;;;;;;;12.63;8.75;;;;;;;23.43;44.38;101567.72;4987464;28;20086;-74
2021/09/13 08:54:23;;;;;;;16.70;11.35;;;;;;;23.46;44.58;101568.25;4986533;28;20689;-74
2021/09/13 08:56:56;;;;;;;16.50;10.98;;;;;;;23.50;44.14;101572.44;4985610;28;20141;-74
2021/09/13 08:59:25;;;;;;;16.30;10.35;;;;;;;23.54;44.45;101570.22;4993695;28;20096;-74
2021/09/13 09:01:53;;;;;;;17.10;10.63;;;;;;;23.59;44.52;101578.00;5006803;28;20099;-74
2021/09/13 09:04:21;;;;;;;16.63;10.68;;;;;;;23.62;44.04;101572.13;4990542;28;20346;-74
2021/09/13 09:06:49;;;;;;;17.33;10.63;;;;;;;23.66;44.15;101568.84;4986627;28;20074;-74
2021/09/13 09:09:20;;;;;;;15.50;10.60;;;;;;;23.74;44.00;101579.94;4986700;28;20050;-74
2021/09/13 09:12:01;;;;;;;17.42;11.45;;;;;;;23.78;44.14;101561.94;4969599;28;20144;-74
2021/09/13 09:14:42;;;;;;;17.00;10.88;;;;;;;23.82;44.40;101565.22;4986107;28;20142;-74
2021/09/13 09:17:26;;;;;;;15.50;10.38;;;;;;;23.88;44.42;101568.16;4986041;28;20085;-74
2021/09/13 09:20:08;;;;;;;14.23;9.50;;;;;;;23.94;44.32;101571.31;4986121;28;20052;-74
2021/09/13 09:22:40;;;;;;;13.65;9.07;;;;;;;23.95;44.33;101568.38;4986050;28;20090;-74
2021/09/13 09:25:10;;;;;;;12.93;8.80;;;;;;;24.06;44.09;101573.56;4987023;28;20137;-74
2021/09/13 09:27:57;;;;;;;12.30;8.80;;;;;;;24.14;43.85;101573.56;4986875;28;20601;-74
2021/09/13 09:30:34;;;;;;;15.10;10.13;;;;;;;24.24;43.37;101573.44;5001753;28;20085;-74
2021/09/13 09:33:06;;;;;;;12.45;8.00;;;;;;;24.32;44.06;101576.19;5004951;28;20200;-75
2021/09/13 09:35:41;;;;;;;11.45;7.10;;;;;;;24.38;43.76;101566.31;4986316;28;20058;-74
2021/09/13 09:38:36;;;;;;;11.85;8.00;;;;;;;24.45;43.45;101561.81;4985631;28;20073;-74
2021/09/13 09:41:09;;;;;;;11.60;8.40;;;;;;;24.55;43.19;101549.44;4968843;28;20054;-74
2021/09/13 09:43:47;;;;;;;;;;;;;;;24.29;43.64;101557.13;4986131;28;20575;-74
2021/09/13 09:46:14;;;;;;;10.00;6.22;;;;;;;24.60;43.32;101551.69;4985989;28;19922;-74
2021/09/13 09:48:41;;;;;;;10.43;6.90;;;;;;;24.70;43.06;101538.50;4985839;28;20077;-74
2021/09/13 09:51:50;;;;;;;8.57;6.20;;;;;;;24.71;42.37;101545.75;4986388;28;20500;-74
2021/09/13 09:54:21;;;;;;;9.73;6.03;;;;;;;24.86;42.25;101544.00;4932601;28;20086;-74
2021/09/13 09:56:58;;;;;;;10.85;7.28;;;;;;;24.94;41.91;101540.34;4944435;28;20095;-74
2021/09/13 09:59:32;;;;;;;10.63;6.85;;;;;;;25.03;41.84;101539.28;4951288;28;20133;-74
2021/09/13 10:01:59;;;;;;;8.38;5.63;;;;;;;25.06;42.43;101530.56;4963951;28;20054;-74
2021/09/13 10:04:28;;;;;;;9.43;6.57;;;;;;;25.16;42.28;101530.34;4963130;28;20186;-75
2021/09/13 10:06:57;;;;;;;9.40;6.53;;;;;;;25.22;42.41;101526.84;4963467;28;20053;-74
2021/09/13 10:09:26;;;;;;;9.85;7.18;;;;;;;25.28;41.85;101521.41;4956447;28;20074;-74
2021/09/13 10:11:54;;;;;;;9.57;6.78;;;;;;;25.36;41.94;101526.09;4944638;29;20416;-74
2021/09/13 10:14:24;;;;;;;8.45;5.13;;;;;;;25.42;42.29;101514.22;4943536;28;20141;-74
2021/09/13 10:16:51;;;;;;;7.78;5.32;;;;;;;25.48;42.03;101519.03;4944193;29;20051;-74
2021/09/13 10:19:32;;;;;;;7.82;4.80;;;;;;;25.56;41.86;101521.78;4943827;28;20070;-74
2021/09/13 10:21:59;;;;;;;7.35;4.93;;;;;;;25.64;41.53;101520.88;4944605;29;20058;-74
2021/09/13 10:24:28;;;;;;;6.75;5.10;;;;;;;25.73;40.90;101522.56;4953744;28;20296;-74
2021/09/13 10:26:58;;;;;;;7.57;4.60;;;;;;;25.82;40.42;101517.78;4986256;28;20061;-74
2021/09/13 10:29:29;;;;;;;6.10;4.45;;;;;;;25.87;40.21;101518.97;4999581;28;20141;-74
2021/09/13 10:31:58;;;;;;;6.13;4.25;;;;;;;25.91;40.32;101520.34;5009732;28;20145;-74
2021/09/13 10:34:33;;;;;;;5.70;3.63;;;;;;;25.98;40.25;101521.31;5004982;28;20042;-74
2021/09/13 10:37:05;;;;;;;6.47;4.82;;;;;;;26.04;39.73;101519.69;4989623;28;20137;-74
2021/09/13 10:39:49;;;;;;;6.55;4.30;;;;;;;26.07;38.73;101524.91;4988675;28;20573;-74
2021/09/13 10:42:43;;;;;;;6.68;3.85;;;;;;;26.09;38.72;101523.66;4989861;28;20136;-75
2021/09/13 10:45:40;;;;;;;6.03;3.47;;;;;;;26.09;39.11;101523.66;4989367;28;20074;-74
2021/09/13 10:48:10;;;;;;;5.43;3.38;;;;;;;26.19;39.49;101522.53;4988530;28;20447;-74
2021/09/13 10:50:36;;;;;;;5.72;3.25;;;;;;;26.22;38.85;101514.66;4989844;28;20129;-74
2021/09/13 10:53:24;;;;;;;5.82;3.67;;;;;;;26.26;38.38;101509.63;4988647;28;20081;-74
2021/09/13 10:55:59;;;;;;;7.38;4.00;;;;;;;26.27;37.29;101503.88;4988708;28;20499;-74
2021/09/13 10:58:51;;;;;;;5.70;3.67;;;;;;;26.23;36.82;101504.38;4996326;28;20475;-74
2021/09/13 11:01:22;;;;;;;4.85;3.38;;;;;;;26.23;37.19;101507.16;4993408;28;20054;-74
2021/09/13 11:03:51;;;;;;;6.00;3.80;;;;;;;26.23;37.14;101508.03;4988697;28;20052;-74
2021/09/13 11:06:17;;;;;;;4.40;3.13;;;;;;;26.20;37.02;101500.06;4987861;28;20108;-74
2021/09/13 11:08:56;;;;;;;5.63;3.40;;;;;;;26.23;35.98;101498.81;4987221;28;20050;-74
2021/09/13 11:11:49;;;;;;;5.25;3.00;;;;;;;26.19;36.47;101489.97;4989313;28;20085;-74
2021/09/13 11:14:20;;;;;;;4.20;2.92;;;;;;;26.22;36.36;101491.53;4988159;28;20502;-74
2021/09/13 11:16:48;;;;;;;4.80;2.70;;;;;;;26.22;37.24;101495.16;4988359;28;20515;-74
2021/09/13 11:19:17;;;;;;;5.30;3.25;;;;;;;26.29;36.75;101487.81;4988200;28;20499;-74
2021/09/13 11:21:48;;;;;;;3.90;2.88;;;;;;;26.34;36.21;101488.13;4988865;28;20533;-74
2021/09/13 11:24:17;;;;;;;4.68;3.13;;;;;;;26.34;36.73;101482.56;4988268;28;20070;-74
2021/09/13 11:26:48;;;;;;;4.30;3.03;;;;;;;26.42;35.92;101484.41;4988678;28;20054;-74
2021/09/13 11:29:30;;;;;;;5.22;3.35;;;;;;;26.44;36.15;101483.13;5002278;28;20104;-74
2021/09/13 11:31:57;;;;;;;4.25;2.90;;;;;;;26.43;36.44;101484.22;4988856;28;20047;-74
2021/09/13 11:34:36;;;;;;;5.30;3.10;;;;;;;26.51;35.69;101481.34;4987632;28;20066;-74
2021/09/13 11:37:09;;;;;;;6.75;3.17;;;;;;;26.52;36.24;101485.81;4986989;28;20081;-74
2021/09/13 11:39:51;;;;;;;5.22;2.92;;;;;;;26.56;35.39;101472.38;4986594;28;20058;-74
2021/09/13 11:42:25;;;;;;;4.82;3.00;;;;;;;26.59;35.23;101477.59;4986229;28;20084;-74